sensor_id;sensor_type;location;lat;lon;timestamp;P1;P2;P0
42002;PMS7003;27693;50.506;30.832;2022-12-11T00:00:27;46.10;36.30;23.90
42002;PMS7003;27693;50.506;30.832;2022-12-11T00:01:30;49.50;37.60;24.80
42002;PMS7003;27693;50.506;30.832;2022-12-11T00:02:32;49.00;35.89;24.44
42002;PMS7003;27693;50.506;30.832;2022-12-11T00:03:34;63.10;48.30;31.30
42002;PMS7003;27693;50.506;30.832;2022-12-11T00:04:36;60.78;45.67;30.11
42002;PMS7003;27693;50.506;30.832;2022-12-11T00:05:42;51.67;38.78;26.56
42002;PMS7003;27693;50.506;30.832;2022-12-11T00:06:42;52.60;41.70;26.70
42002;PMS7003;27693;50.506;30.832;2022-12-11T00:07:45;46.82;36.91;24.73
42002;PMS7003;27693;50.506;30.832;2022-12-11T00:08:47;57.89;43.22;28.56
42002;PMS7003;27693;50.506;30.832;2022-12-11T00:09:55;54.60;43.50;28.70
42002;PMS7003;27693;50.506;30.832;2022-12-11T00:10:56;49.89;39.67;26.67
42002;PMS7003;27693;50.506;30.832;2022-12-11T00:12:00;55.55;41.55;28.18
42002;PMS7003;27693;50.506;30.832;2022-12-11T00:13:02;57.90;44.90;28.80
42002;PMS7003;27693;50.506;30.832;2022-12-11T00:14:06;58.70;45.60;30.90
42002;PMS7003;27693;50.506;30.832;2022-12-11T00:15:09;57.64;45.09;30.00
42002;PMS7003;27693;50.506;30.832;2022-12-11T00:16:12;52.80;42.50;27.80
42002;PMS7003;27693;50.506;30.832;2022-12-11T00:17:14;57.30;45.40;30.70
42002;PMS7003;27693;50.506;30.832;2022-12-11T00:18:17;49.20;37.30;21.60
42002;PMS7003;27693;50.506;30.832;2022-12-11T00:19:19;56.00;42.60;28.40
42002;PMS7003;27693;50.506;30.832;2022-12-11T00:20:21;58.60;46.90;30.70
42002;PMS7003;27693;50.506;30.832;2022-12-11T00:21:23;66.11;48.00;30.67
42002;PMS7003;27693;50.506;30.832;2022-12-11T00:22:28;62.09;47.18;31.64
42002;PMS7003;27693;50.506;30.832;2022-12-11T00:23:31;67.80;50.50;32.90
42002;PMS7003;27693;50.506;30.832;2022-12-11T00:24:36;66.10;49.80;33.10
42002;PMS7003;27693;50.506;30.832;2022-12-11T00:25:46;68.44;52.33;34.22
42002;PMS7003;27693;50.506;30.832;2022-12-11T00:26:46;61.20;46.00;31.10
42002;PMS7003;27693;50.506;30.832;2022-12-11T00:27:49;61.82;46.45;30.91
42002;PMS7003;27693;50.506;30.832;2022-12-11T00:28:55;60.00;46.11;30.11
42002;PMS7003;27693;50.506;30.832;2022-12-11T00:29:56;62.00;48.40;30.90
42002;PMS7003;27693;50.506;30.832;2022-12-11T00:30:58;62.30;47.90;31.70
42002;PMS7003;27693;50.506;30.832;2022-12-11T00:32:00;66.22;49.89;32.56
42002;PMS7003;27693;50.506;30.832;2022-12-11T00:33:02;62.89;47.33;31.56
42002;PMS7003;27693;50.506;30.832;2022-12-11T00:34:03;62.56;47.33;30.67
42002;PMS7003;27693;50.506;30.832;2022-12-11T00:35:07;50.40;41.70;28.30
42002;PMS7003;27693;50.506;30.832;2022-12-11T00:36:16;59.20;45.90;29.60
42002;PMS7003;27693;50.506;30.832;2022-12-11T00:37:18;55.50;42.00;28.90
42002;PMS7003;27693;50.506;30.832;2022-12-11T00:38:20;58.78;45.56;29.00
42002;PMS7003;27693;50.506;30.832;2022-12-11T00:39:23;57.90;43.40;28.90
42002;PMS7003;27693;50.506;30.832;2022-12-11T00:40:26;56.80;43.10;28.90
42002;PMS7003;27693;50.506;30.832;2022-12-11T00:41:28;56.60;44.30;29.40
42002;PMS7003;27693;50.506;30.832;2022-12-11T00:42:32;62.60;45.50;30.00
42002;PMS7003;27693;50.506;30.832;2022-12-11T00:43:34;55.22;43.56;28.33
42002;PMS7003;27693;50.506;30.832;2022-12-11T00:44:36;56.10;43.00;28.80
42002;PMS7003;27693;50.506;30.832;2022-12-11T00:45:42;59.78;44.00;29.11
42002;PMS7003;27693;50.506;30.832;2022-12-11T00:46:47;59.60;45.70;29.90
42002;PMS7003;27693;50.506;30.832;2022-12-11T00:47:49;58.00;44.56;29.44
42002;PMS7003;27693;50.506;30.832;2022-12-11T00:48:51;57.33;43.22;28.56
42002;PMS7003;27693;50.506;30.832;2022-12-11T00:49:53;57.56;44.56;29.22
42002;PMS7003;27693;50.506;30.832;2022-12-11T00:50:55;57.50;44.70;29.30
42002;PMS7003;27693;50.506;30.832;2022-12-11T00:51:58;55.50;42.60;27.30
42002;PMS7003;27693;50.506;30.832;2022-12-11T00:53:00;56.50;42.40;28.80
42002;PMS7003;27693;50.506;30.832;2022-12-11T00:54:02;55.30;42.40;26.90
42002;PMS7003;27693;50.506;30.832;2022-12-11T00:55:05;48.20;38.60;25.60
42002;PMS7003;27693;50.506;30.832;2022-12-11T00:56:08;52.82;39.73;27.36
42002;PMS7003;27693;50.506;30.832;2022-12-11T00:57:12;51.40;41.50;27.00
42002;PMS7003;27693;50.506;30.832;2022-12-11T00:58:14;50.30;40.60;27.70
42002;PMS7003;27693;50.506;30.832;2022-12-11T00:59:17;53.91;41.45;27.36
42002;PMS7003;27693;50.506;30.832;2022-12-11T01:00:19;53.80;42.80;28.00
42002;PMS7003;27693;50.506;30.832;2022-12-11T01:01:22;53.30;43.10;27.90
42002;PMS7003;27693;50.506;30.832;2022-12-11T01:02:26;55.10;41.80;27.40
42002;PMS7003;27693;50.506;30.832;2022-12-11T01:03:28;54.80;42.00;28.00
42002;PMS7003;27693;50.506;30.832;2022-12-11T01:04:30;54.89;43.33;28.11
42002;PMS7003;27693;50.506;30.832;2022-12-11T01:05:34;53.00;39.90;27.40
42002;PMS7003;27693;50.506;30.832;2022-12-11T01:06:36;52.80;41.30;27.10
42002;PMS7003;27693;50.506;30.832;2022-12-11T01:07:40;51.50;41.40;26.60
42002;PMS7003;27693;50.506;30.832;2022-12-11T01:08:42;47.80;38.50;26.70
42002;PMS7003;27693;50.506;30.832;2022-12-11T01:09:45;22.60;21.00;19.10
42002;PMS7003;27693;50.506;30.832;2022-12-11T01:10:47;52.10;40.80;27.30
42002;PMS7003;27693;50.506;30.832;2022-12-11T01:11:50;52.00;42.00;28.00
42002;PMS7003;27693;50.506;30.832;2022-12-11T01:13:59;55.50;42.40;28.20
42002;PMS7003;27693;50.506;30.832;2022-12-11T01:15:01;52.50;41.70;27.50
42002;PMS7003;27693;50.506;30.832;2022-12-11T01:16:07;47.80;35.80;25.00
42002;PMS7003;27693;50.506;30.832;2022-12-11T01:17:11;54.40;40.20;25.90
42002;PMS7003;27693;50.506;30.832;2022-12-11T01:18:13;55.30;42.30;27.40
42002;PMS7003;27693;50.506;30.832;2022-12-11T01:19:15;55.40;41.90;27.80
42002;PMS7003;27693;50.506;30.832;2022-12-11T01:20:18;56.67;43.44;29.00
42002;PMS7003;27693;50.506;30.832;2022-12-11T01:21:21;54.10;42.30;27.40
42002;PMS7003;27693;50.506;30.832;2022-12-11T01:22:23;52.40;40.20;26.40
42002;PMS7003;27693;50.506;30.832;2022-12-11T01:23:25;51.10;41.40;28.10
42002;PMS7003;27693;50.506;30.832;2022-12-11T01:24:27;46.00;35.22;22.67
42002;PMS7003;27693;50.506;30.832;2022-12-11T01:25:29;50.89;38.11;25.56
42002;PMS7003;27693;50.506;30.832;2022-12-11T01:26:32;53.00;41.30;27.70
42002;PMS7003;27693;50.506;30.832;2022-12-11T01:27:34;51.70;39.10;25.70
42002;PMS7003;27693;50.506;30.832;2022-12-11T01:28:37;53.20;37.50;25.20
42002;PMS7003;27693;50.506;30.832;2022-12-11T01:29:39;51.70;38.90;25.70
42002;PMS7003;27693;50.506;30.832;2022-12-11T01:30:41;44.30;36.90;25.00
42002;PMS7003;27693;50.506;30.832;2022-12-11T01:31:43;43.50;34.50;22.90
42002;PMS7003;27693;50.506;30.832;2022-12-11T01:32:45;49.22;37.56;24.89
42002;PMS7003;27693;50.506;30.832;2022-12-11T01:33:47;43.78;36.33;23.78
42002;PMS7003;27693;50.506;30.832;2022-12-11T01:34:49;46.56;34.67;22.22
42002;PMS7003;27693;50.506;30.832;2022-12-11T01:35:51;40.00;31.11;20.67
42002;PMS7003;27693;50.506;30.832;2022-12-11T01:36:53;40.00;33.00;22.30
42002;PMS7003;27693;50.506;30.832;2022-12-11T01:37:55;47.44;35.78;24.22
42002;PMS7003;27693;50.506;30.832;2022-12-11T01:38:57;48.11;37.00;24.33
42002;PMS7003;27693;50.506;30.832;2022-12-11T01:39:59;47.44;35.33;24.56
42002;PMS7003;27693;50.506;30.832;2022-12-11T01:41:02;37.40;34.50;24.60
42002;PMS7003;27693;50.506;30.832;2022-12-11T01:42:04;47.80;36.50;22.90
42002;PMS7003;27693;50.506;30.832;2022-12-11T01:43:08;45.50;37.80;24.70
42002;PMS7003;27693;50.506;30.832;2022-12-11T01:45:35;46.40;35.70;23.50
42002;PMS7003;27693;50.506;30.832;2022-12-11T01:46:39;44.60;35.20;23.50
42002;PMS7003;27693;50.506;30.832;2022-12-11T01:47:43;39.90;33.10;22.70
42002;PMS7003;27693;50.506;30.832;2022-12-11T01:48:45;41.80;33.20;22.70
42002;PMS7003;27693;50.506;30.832;2022-12-11T01:49:47;43.50;32.50;22.40
42002;PMS7003;27693;50.506;30.832;2022-12-11T01:50:51;36.33;30.67;21.56
42002;PMS7003;27693;50.506;30.832;2022-12-11T01:51:57;39.40;31.30;21.10
42002;PMS7003;27693;50.506;30.832;2022-12-11T01:53:01;33.70;29.40;19.90
42002;PMS7003;27693;50.506;30.832;2022-12-11T01:54:08;33.00;28.50;19.30
42002;PMS7003;27693;50.506;30.832;2022-12-11T01:55:13;34.90;29.20;18.60
42002;PMS7003;27693;50.506;30.832;2022-12-11T01:56:16;28.20;24.30;17.90
42002;PMS7003;27693;50.506;30.832;2022-12-11T01:57:19;31.50;26.90;18.80
42002;PMS7003;27693;50.506;30.832;2022-12-11T01:58:21;29.11;26.44;18.33
42002;PMS7003;27693;50.506;30.832;2022-12-11T01:59:26;25.70;20.50;13.00
42002;PMS7003;27693;50.506;30.832;2022-12-11T02:00:31;29.80;24.70;18.40
42002;PMS7003;27693;50.506;30.832;2022-12-11T02:01:34;27.30;24.00;17.90
42002;PMS7003;27693;50.506;30.832;2022-12-11T02:02:41;27.00;23.30;17.10
42002;PMS7003;27693;50.506;30.832;2022-12-11T02:03:43;27.70;22.70;16.70
42002;PMS7003;27693;50.506;30.832;2022-12-11T02:04:46;25.30;21.90;16.10
42002;PMS7003;27693;50.506;30.832;2022-12-11T02:05:48;21.80;18.40;14.00
42002;PMS7003;27693;50.506;30.832;2022-12-11T02:06:51;28.40;20.60;14.80
42002;PMS7003;27693;50.506;30.832;2022-12-11T02:07:55;24.50;20.60;14.70
42002;PMS7003;27693;50.506;30.832;2022-12-11T02:08:59;24.30;21.60;14.60
42002;PMS7003;27693;50.506;30.832;2022-12-11T02:10:03;20.50;18.20;12.30
42002;PMS7003;27693;50.506;30.832;2022-12-11T02:11:09;22.90;19.60;14.40
42002;PMS7003;27693;50.506;30.832;2022-12-11T02:12:14;20.60;16.30;11.90
42002;PMS7003;27693;50.506;30.832;2022-12-11T02:13:45;19.20;16.50;11.60
42002;PMS7003;27693;50.506;30.832;2022-12-11T02:14:45;18.00;14.00;10.50
42002;PMS7003;27693;50.506;30.832;2022-12-11T02:17:21;16.10;13.20;9.60
42002;PMS7003;27693;50.506;30.832;2022-12-11T02:18:24;18.40;17.60;13.60
42002;PMS7003;27693;50.506;30.832;2022-12-11T02:20:57;17.60;13.40;10.70
42002;PMS7003;27693;50.506;30.832;2022-12-11T02:21:59;13.50;12.90;9.00
42002;PMS7003;27693;50.506;30.832;2022-12-11T02:23:11;15.40;13.70;10.60
42002;PMS7003;27693;50.506;30.832;2022-12-11T02:25:28;16.90;12.20;9.30
42002;PMS7003;27693;50.506;30.832;2022-12-11T02:27:45;16.50;13.00;9.70
42002;PMS7003;27693;50.506;30.832;2022-12-11T02:28:53;14.20;12.40;9.90
42002;PMS7003;27693;50.506;30.832;2022-12-11T02:30:08;15.60;13.30;9.90
42002;PMS7003;27693;50.506;30.832;2022-12-11T02:31:19;15.40;12.70;7.90
42002;PMS7003;27693;50.506;30.832;2022-12-11T02:32:24;15.80;12.30;9.80
42002;PMS7003;27693;50.506;30.832;2022-12-11T02:33:31;14.90;14.20;10.70
42002;PMS7003;27693;50.506;30.832;2022-12-11T02:34:42;14.80;12.80;9.20
42002;PMS7003;27693;50.506;30.832;2022-12-11T02:35:47;14.40;11.70;7.90
42002;PMS7003;27693;50.506;30.832;2022-12-11T02:36:51;13.60;12.50;8.90
42002;PMS7003;27693;50.506;30.832;2022-12-11T02:37:58;14.90;12.60;9.50
42002;PMS7003;27693;50.506;30.832;2022-12-11T02:39:05;15.50;12.80;8.90
42002;PMS7003;27693;50.506;30.832;2022-12-11T02:40:11;14.70;13.50;10.80
42002;PMS7003;27693;50.506;30.832;2022-12-11T02:41:16;13.10;12.50;8.70
42002;PMS7003;27693;50.506;30.832;2022-12-11T02:42:21;18.00;12.90;9.60
42002;PMS7003;27693;50.506;30.832;2022-12-11T02:43:26;22.90;15.60;12.20
42002;PMS7003;27693;50.506;30.832;2022-12-11T02:44:32;22.20;17.70;12.80
42002;PMS7003;27693;50.506;30.832;2022-12-11T02:45:36;18.00;15.10;11.70
42002;PMS7003;27693;50.506;30.832;2022-12-11T06:04:06;39.50;26.70;19.10
42002;PMS7003;27693;50.506;30.832;2022-12-11T06:05:09;54.60;37.00;25.30
42002;PMS7003;27693;50.506;30.832;2022-12-11T06:06:12;58.64;40.45;26.45
42002;PMS7003;27693;50.506;30.832;2022-12-11T06:07:14;58.78;42.11;27.89
42002;PMS7003;27693;50.506;30.832;2022-12-11T06:08:16;37.33;34.00;22.33
42002;PMS7003;27693;50.506;30.832;2022-12-11T06:09:18;43.89;32.78;22.22
42002;PMS7003;27693;50.506;30.832;2022-12-11T06:10:20;32.50;26.90;18.40
42002;PMS7003;27693;50.506;30.832;2022-12-11T06:11:23;38.11;28.89;20.11
42002;PMS7003;27693;50.506;30.832;2022-12-11T06:12:26;36.10;28.70;19.10
42002;PMS7003;27693;50.506;30.832;2022-12-11T06:13:28;32.56;23.78;17.56
42002;PMS7003;27693;50.506;30.832;2022-12-11T06:14:30;28.90;22.90;14.90
42002;PMS7003;27693;50.506;30.832;2022-12-11T06:15:32;29.00;21.40;15.30
42002;PMS7003;27693;50.506;30.832;2022-12-11T06:16:34;27.00;23.00;15.33
42002;PMS7003;27693;50.506;30.832;2022-12-11T06:17:36;29.56;22.56;16.44
42002;PMS7003;27693;50.506;30.832;2022-12-11T06:18:39;26.78;23.33;16.44
42002;PMS7003;27693;50.506;30.832;2022-12-11T06:19:43;23.40;21.00;15.60
42002;PMS7003;27693;50.506;30.832;2022-12-11T06:20:45;19.80;17.10;13.20
42002;PMS7003;27693;50.506;30.832;2022-12-11T06:21:46;20.67;19.44;12.67
42002;PMS7003;27693;50.506;30.832;2022-12-11T06:22:48;20.67;18.00;13.56
42002;PMS7003;27693;50.506;30.832;2022-12-11T06:23:51;22.89;20.22;13.44
42002;PMS7003;27693;50.506;30.832;2022-12-11T06:24:54;21.60;19.20;14.20
42002;PMS7003;27693;50.506;30.832;2022-12-11T06:25:56;19.11;18.56;13.67
42002;PMS7003;27693;50.506;30.832;2022-12-11T06:26:58;19.22;18.00;13.67
42002;PMS7003;27693;50.506;30.832;2022-12-11T06:28:00;25.00;22.22;15.11
42002;PMS7003;27693;50.506;30.832;2022-12-11T06:29:02;19.00;18.10;13.40
42002;PMS7003;27693;50.506;30.832;2022-12-11T06:30:07;19.10;17.40;13.50
42002;PMS7003;27693;50.506;30.832;2022-12-11T06:31:10;18.91;17.18;13.36
42002;PMS7003;27693;50.506;30.832;2022-12-11T06:32:12;23.30;18.90;13.20
42002;PMS7003;27693;50.506;30.832;2022-12-11T06:33:14;21.89;16.89;13.00
42002;PMS7003;27693;50.506;30.832;2022-12-11T06:34:16;16.00;14.44;11.44
42002;PMS7003;27693;50.506;30.832;2022-12-11T06:35:18;16.78;14.22;11.44
42002;PMS7003;27693;50.506;30.832;2022-12-11T06:36:21;21.67;18.33;13.22
42002;PMS7003;27693;50.506;30.832;2022-12-11T06:37:24;16.80;15.90;12.80
42002;PMS7003;27693;50.506;30.832;2022-12-11T06:38:27;17.09;15.09;11.82
42002;PMS7003;27693;50.506;30.832;2022-12-11T06:39:30;15.90;15.70;11.90
42002;PMS7003;27693;50.506;30.832;2022-12-11T06:40:34;16.90;13.60;10.30
42002;PMS7003;27693;50.506;30.832;2022-12-11T06:41:36;17.45;16.45;11.82
42002;PMS7003;27693;50.506;30.832;2022-12-11T06:42:39;17.90;17.00;12.10
42002;PMS7003;27693;50.506;30.832;2022-12-11T06:43:40;20.00;17.44;11.44
42002;PMS7003;27693;50.506;30.832;2022-12-11T06:44:43;18.70;16.50;12.70
42002;PMS7003;27693;50.506;30.832;2022-12-11T06:45:45;17.20;14.60;10.40
42002;PMS7003;27693;50.506;30.832;2022-12-11T06:46:47;19.00;16.60;12.60
42002;PMS7003;27693;50.506;30.832;2022-12-11T06:47:50;17.50;16.70;12.90
42002;PMS7003;27693;50.506;30.832;2022-12-11T06:48:51;16.33;15.44;11.78
42002;PMS7003;27693;50.506;30.832;2022-12-11T06:49:53;16.00;15.11;12.11
42002;PMS7003;27693;50.506;30.832;2022-12-11T06:50:56;19.50;16.30;10.70
42002;PMS7003;27693;50.506;30.832;2022-12-11T06:51:59;17.18;16.18;12.64
42002;PMS7003;27693;50.506;30.832;2022-12-11T06:53:01;17.89;15.89;11.89
42002;PMS7003;27693;50.506;30.832;2022-12-11T06:54:03;17.78;14.89;10.89
42002;PMS7003;27693;50.506;30.832;2022-12-11T06:55:07;15.10;12.60;10.30
42002;PMS7003;27693;50.506;30.832;2022-12-11T06:56:10;16.30;12.80;9.80
42002;PMS7003;27693;50.506;30.832;2022-12-11T06:57:14;18.50;13.00;9.30
42002;PMS7003;27693;50.506;30.832;2022-12-11T06:58:17;16.80;14.80;11.10
42002;PMS7003;27693;50.506;30.832;2022-12-11T06:59:19;20.89;16.00;11.67
42002;PMS7003;27693;50.506;30.832;2022-12-11T07:00:21;17.56;14.56;10.67
42002;PMS7003;27693;50.506;30.832;2022-12-11T07:01:24;14.78;12.33;10.11
42002;PMS7003;27693;50.506;30.832;2022-12-11T07:02:27;21.00;14.60;10.70
42002;PMS7003;27693;50.506;30.832;2022-12-11T07:03:29;20.90;15.60;10.70
42002;PMS7003;27693;50.506;30.832;2022-12-11T07:04:32;15.50;15.00;11.10
42002;PMS7003;27693;50.506;30.832;2022-12-11T07:05:34;17.90;14.60;11.40
42002;PMS7003;27693;50.506;30.832;2022-12-11T07:06:37;18.45;15.00;11.64
42002;PMS7003;27693;50.506;30.832;2022-12-11T07:07:39;20.20;15.70;11.20
42002;PMS7003;27693;50.506;30.832;2022-12-11T07:08:41;18.00;11.78;8.44
42002;PMS7003;27693;50.506;30.832;2022-12-11T07:09:43;18.80;15.80;12.20
42002;PMS7003;27693;50.506;30.832;2022-12-11T07:10:45;21.10;18.90;12.60
42002;PMS7003;27693;50.506;30.832;2022-12-11T07:11:50;22.11;17.00;14.33
42002;PMS7003;27693;50.506;30.832;2022-12-11T07:12:53;19.30;15.50;11.70
42002;PMS7003;27693;50.506;30.832;2022-12-11T07:13:57;17.50;15.70;12.40
42002;PMS7003;27693;50.506;30.832;2022-12-11T07:15:00;17.80;17.40;11.90
42002;PMS7003;27693;50.506;30.832;2022-12-11T07:16:02;18.30;16.20;12.70
42002;PMS7003;27693;50.506;30.832;2022-12-11T07:17:06;22.50;18.20;13.80
42002;PMS7003;27693;50.506;30.832;2022-12-11T07:18:09;23.90;18.40;14.40
42002;PMS7003;27693;50.506;30.832;2022-12-11T07:19:11;22.33;16.33;12.89
42002;PMS7003;27693;50.506;30.832;2022-12-11T07:20:13;16.33;13.44;9.00
42002;PMS7003;27693;50.506;30.832;2022-12-11T07:21:16;22.00;18.00;13.10
42002;PMS7003;27693;50.506;30.832;2022-12-11T07:22:19;21.80;18.20;13.70
42002;PMS7003;27693;50.506;30.832;2022-12-11T07:23:21;18.00;15.50;12.10
42002;PMS7003;27693;50.506;30.832;2022-12-11T07:24:23;20.44;16.89;12.22
42002;PMS7003;27693;50.506;30.832;2022-12-11T07:25:25;21.00;16.80;13.10
42002;PMS7003;27693;50.506;30.832;2022-12-11T07:26:27;21.67;17.67;13.56
42002;PMS7003;27693;50.506;30.832;2022-12-11T07:27:29;24.11;19.67;14.78
42002;PMS7003;27693;50.506;30.832;2022-12-11T07:28:31;19.67;18.33;13.89
42002;PMS7003;27693;50.506;30.832;2022-12-11T07:29:34;20.30;16.20;11.70
42002;PMS7003;27693;50.506;30.832;2022-12-11T07:30:40;18.80;15.70;12.30
42002;PMS7003;27693;50.506;30.832;2022-12-11T07:31:40;22.70;17.60;12.70
42002;PMS7003;27693;50.506;30.832;2022-12-11T07:32:42;23.00;17.90;14.40
42002;PMS7003;27693;50.506;30.832;2022-12-11T07:33:44;24.40;18.00;12.80
42002;PMS7003;27693;50.506;30.832;2022-12-11T07:34:47;19.80;16.40;11.80
42002;PMS7003;27693;50.506;30.832;2022-12-11T07:35:51;19.90;17.70;13.20
42002;PMS7003;27693;50.506;30.832;2022-12-11T07:36:53;26.60;20.60;13.90
42002;PMS7003;27693;50.506;30.832;2022-12-11T07:37:55;18.11;15.67;10.11
42002;PMS7003;27693;50.506;30.832;2022-12-11T07:38:57;19.78;17.11;11.44
42002;PMS7003;27693;50.506;30.832;2022-12-11T07:40:00;17.50;15.40;11.20
42002;PMS7003;27693;50.506;30.832;2022-12-11T07:41:03;17.30;14.30;9.60
42002;PMS7003;27693;50.506;30.832;2022-12-11T07:42:07;11.80;10.30;8.60
42002;PMS7003;27693;50.506;30.832;2022-12-11T07:43:09;20.30;14.80;10.50
42002;PMS7003;27693;50.506;30.832;2022-12-11T07:44:11;13.67;11.33;9.22
42002;PMS7003;27693;50.506;30.832;2022-12-11T07:45:13;17.90;14.90;11.20
42002;PMS7003;27693;50.506;30.832;2022-12-11T07:46:17;15.10;13.50;8.80
42002;PMS7003;27693;50.506;30.832;2022-12-11T07:47:21;18.40;12.70;9.90
42002;PMS7003;27693;50.506;30.832;2022-12-11T07:48:23;15.11;13.78;9.11
42002;PMS7003;27693;50.506;30.832;2022-12-11T07:49:25;18.22;16.22;12.22
42002;PMS7003;27693;50.506;30.832;2022-12-11T07:50:27;13.78;13.00;10.22
42002;PMS7003;27693;50.506;30.832;2022-12-11T07:51:29;21.33;17.67;13.22
42002;PMS7003;27693;50.506;30.832;2022-12-11T07:52:33;19.70;17.20;13.10
42002;PMS7003;27693;50.506;30.832;2022-12-11T07:53:36;23.50;18.60;14.10
42002;PMS7003;27693;50.506;30.832;2022-12-11T07:54:39;18.10;15.70;11.80
42002;PMS7003;27693;50.506;30.832;2022-12-11T07:55:41;20.78;14.44;10.56
42002;PMS7003;27693;50.506;30.832;2022-12-11T07:56:43;13.56;11.89;9.00
42002;PMS7003;27693;50.506;30.832;2022-12-11T07:57:49;15.90;14.30;10.30
42002;PMS7003;27693;50.506;30.832;2022-12-11T07:58:51;17.40;13.20;10.10
42002;PMS7003;27693;50.506;30.832;2022-12-11T07:59:53;14.70;13.50;10.20
42002;PMS7003;27693;50.506;30.832;2022-12-11T08:00:55;18.30;14.80;11.00
42002;PMS7003;27693;50.506;30.832;2022-12-11T08:01:57;15.30;12.50;8.90
42002;PMS7003;27693;50.506;30.832;2022-12-11T08:02:59;10.40;10.40;8.70
42002;PMS7003;27693;50.506;30.832;2022-12-11T08:04:02;16.80;13.80;10.70
42002;PMS7003;27693;50.506;30.832;2022-12-11T08:05:07;16.00;13.60;9.90
42002;PMS7003;27693;50.506;30.832;2022-12-11T08:06:11;14.20;11.20;8.60
42002;PMS7003;27693;50.506;30.832;2022-12-11T08:07:15;13.80;12.00;9.00
42002;PMS7003;27693;50.506;30.832;2022-12-11T08:08:17;18.33;14.11;9.78
42002;PMS7003;27693;50.506;30.832;2022-12-11T08:09:20;17.00;12.90;9.70
42002;PMS7003;27693;50.506;30.832;2022-12-11T08:10:23;18.30;14.00;10.60
42002;PMS7003;27693;50.506;30.832;2022-12-11T08:11:25;14.89;13.78;9.78
42002;PMS7003;27693;50.506;30.832;2022-12-11T08:12:28;14.20;12.90;9.40
42002;PMS7003;27693;50.506;30.832;2022-12-11T08:13:30;13.50;12.70;9.80
42002;PMS7003;27693;50.506;30.832;2022-12-11T08:14:32;21.10;17.80;12.80
42002;PMS7003;27693;50.506;30.832;2022-12-11T08:15:35;14.00;13.30;10.20
42002;PMS7003;27693;50.506;30.832;2022-12-11T08:16:37;13.50;11.30;8.60
42002;PMS7003;27693;50.506;30.832;2022-12-11T08:17:39;12.56;12.11;9.67
42002;PMS7003;27693;50.506;30.832;2022-12-11T08:18:42;14.00;12.20;9.70
42002;PMS7003;27693;50.506;30.832;2022-12-11T08:19:46;13.40;10.10;7.10
42002;PMS7003;27693;50.506;30.832;2022-12-11T08:20:49;13.70;12.50;9.60
42002;PMS7003;27693;50.506;30.832;2022-12-11T08:21:51;14.00;12.90;10.00
42002;PMS7003;27693;50.506;30.832;2022-12-11T08:22:53;18.33;14.67;10.33
42002;PMS7003;27693;50.506;30.832;2022-12-11T08:23:57;20.90;17.30;12.30
42002;PMS7003;27693;50.506;30.832;2022-12-11T08:25:00;15.45;13.27;10.00
42002;PMS7003;27693;50.506;30.832;2022-12-11T08:26:03;15.10;12.00;9.40
42002;PMS7003;27693;50.506;30.832;2022-12-11T08:27:08;14.80;13.20;10.70
42002;PMS7003;27693;50.506;30.832;2022-12-11T08:28:11;3.90;1.70;0.20
42002;PMS7003;27693;50.506;30.832;2022-12-11T08:29:14;13.80;12.50;10.30
42002;PMS7003;27693;50.506;30.832;2022-12-11T08:30:16;13.00;12.20;10.30
42002;PMS7003;27693;50.506;30.832;2022-12-11T08:31:19;15.20;13.60;10.50
42002;PMS7003;27693;50.506;30.832;2022-12-11T08:32:22;14.30;12.50;9.90
42002;PMS7003;27693;50.506;30.832;2022-12-11T08:33:24;15.60;14.40;9.00
42002;PMS7003;27693;50.506;30.832;2022-12-11T08:34:26;20.50;15.60;11.00
42002;PMS7003;27693;50.506;30.832;2022-12-11T08:35:28;18.11;16.44;12.00
42002;PMS7003;27693;50.506;30.832;2022-12-11T08:36:31;15.90;13.50;10.30
42002;PMS7003;27693;50.506;30.832;2022-12-11T08:37:33;16.56;14.78;12.00
42002;PMS7003;27693;50.506;30.832;2022-12-11T08:38:35;16.30;14.00;10.40
42002;PMS7003;27693;50.506;30.832;2022-12-11T08:39:38;15.27;13.55;10.18
42002;PMS7003;27693;50.506;30.832;2022-12-11T08:40:40;16.20;15.30;10.80
42002;PMS7003;27693;50.506;30.832;2022-12-11T08:41:42;17.30;15.40;10.40
42002;PMS7003;27693;50.506;30.832;2022-12-11T08:42:44;14.40;12.50;10.00
42002;PMS7003;27693;50.506;30.832;2022-12-11T08:43:47;22.40;17.40;11.80
42002;PMS7003;27693;50.506;30.832;2022-12-11T08:44:49;16.70;15.80;11.50
42002;PMS7003;27693;50.506;30.832;2022-12-11T08:45:51;16.33;14.89;11.56
42002;PMS7003;27693;50.506;30.832;2022-12-11T08:46:53;19.20;16.40;11.10
42002;PMS7003;27693;50.506;30.832;2022-12-11T08:47:57;11.70;11.20;7.40
42002;PMS7003;27693;50.506;30.832;2022-12-11T08:49:00;19.30;16.80;12.90
42002;PMS7003;27693;50.506;30.832;2022-12-11T08:50:03;16.40;14.00;9.20
42002;PMS7003;27693;50.506;30.832;2022-12-11T08:51:06;20.82;15.36;12.09
42002;PMS7003;27693;50.506;30.832;2022-12-11T08:52:11;20.10;17.60;13.20
42002;PMS7003;27693;50.506;30.832;2022-12-11T08:53:13;17.89;16.00;11.44
42002;PMS7003;27693;50.506;30.832;2022-12-11T08:54:15;20.60;17.20;12.00
42002;PMS7003;27693;50.506;30.832;2022-12-11T08:55:18;20.00;15.50;11.60
42002;PMS7003;27693;50.506;30.832;2022-12-11T08:56:20;19.40;14.40;10.70
42002;PMS7003;27693;50.506;30.832;2022-12-11T08:57:22;20.40;17.60;13.00
42002;PMS7003;27693;50.506;30.832;2022-12-11T08:58:24;19.70;17.00;11.70
42002;PMS7003;27693;50.506;30.832;2022-12-11T08:59:26;19.22;16.33;11.67
42002;PMS7003;27693;50.506;30.832;2022-12-11T09:00:28;17.90;14.50;10.90
42002;PMS7003;27693;50.506;30.832;2022-12-11T09:01:31;18.82;15.55;11.09
42002;PMS7003;27693;50.506;30.832;2022-12-11T09:02:35;19.70;16.80;11.20
42002;PMS7003;27693;50.506;30.832;2022-12-11T09:03:37;21.80;17.80;11.30
42002;PMS7003;27693;50.506;30.832;2022-12-11T09:04:39;17.70;17.50;12.00
42002;PMS7003;27693;50.506;30.832;2022-12-11T09:05:43;21.50;17.60;13.00
42002;PMS7003;27693;50.506;30.832;2022-12-11T09:06:46;20.30;16.70;11.80
42002;PMS7003;27693;50.506;30.832;2022-12-11T09:07:50;22.40;13.60;9.30
42002;PMS7003;27693;50.506;30.832;2022-12-11T09:08:52;21.20;17.90;13.30
42002;PMS7003;27693;50.506;30.832;2022-12-11T09:09:56;20.80;17.70;11.60
42002;PMS7003;27693;50.506;30.832;2022-12-11T09:11:05;19.00;15.40;11.80
42002;PMS7003;27693;50.506;30.832;2022-12-11T09:12:09;18.70;15.90;11.20
42002;PMS7003;27693;50.506;30.832;2022-12-11T09:13:11;18.89;17.33;12.44
42002;PMS7003;27693;50.506;30.832;2022-12-11T09:14:13;19.80;17.80;13.00
42002;PMS7003;27693;50.506;30.832;2022-12-11T09:15:15;22.20;19.00;12.90